NWS Home NWS Lubbock West Texas Mesonet Latest Conditions as of 1243 PM, Sat Jun 06, 2020

Latest   N   C   S   Daily Sum   3hrΔ   24hrΔ   Soil Data 
Site Map   24hr Precip   72hr Precip   Google Plot


Station Time of Last Temp Dew Pt. RH Wind Direction Wind Speed Wind Gust Max Wind Max Temp Min Temp Max RH Min RH Altimeter 1HR Rain Today's Rain Solar Rad RFTI
Abernathy 5ENE  12:35 PM 87 56 36% S1925 27 mph 180° @ 1200 PM 87 66 91 36 30.04" 0 0 980 0
Adrian 6WSW  12:35 PM 87 55 34% S2228 37 mph 172° @ 1200 PM 89 68 68 32 30.05" 0 0 918 1
Aiken 3WSW  12:35 PM 84 63 50% SE1618 24 mph 160° @ 1213 PM 84 65 92 46 30.05" 0 0 992 0
Amarillo 15NNW   12:35 PM 91 57 32% S2327 29 mph 145° @ 1147 AM 91 70 72 30 29.99" 0 0 945 1
Amarillo 7SSE  12:35 PM 91 56 31% S2023 31 mph 197° @ 1202 PM 92 66 83 29 30.03" 0 0 959 1
Amarillo 9NNE  12:35 PM 90 55 31% S2123 31 mph 173° @ 1233 PM 91 69 75 28 29.99" 0 0 858 1
Amherst 1NE  12:35 PM 89 53 30% SE1925 32 mph 169° @ 1115 AM 89 64 78 30 30.02" 0 0 982 0
Andrews 2E  12:35 PM 88 58 37% S1521 25 mph 147° @ 1135 AM 88 69 74 36 30.02" 0 0 983 0
Anton 6SSW  12:35 PM 91 54 30% S1723 29 mph 166° @ 1225 PM 91 68 72 30 30.02" 0 0 977 0
Aspermont 3NE  12:35 PM 91 65 44% S812 19 mph 204° @ 1105 AM 91 68 92 43 29.96" 0 0 949 0
Big Bend NP - Castolon  12:35 PM 93 58 31% SE1318 24 mph 127° @ 0132 AM 94 80 56 29 29.91" 0 0 980 0
Big Bend NP - Persimmon Gap  12:35 PM 89 59 36% N35 23 mph 32° @ 1203 AM 89 72 68 36 29.97" 0 0 946 0
Big Lake 1WNW  12:35 PM 84 64 51% SE1114 25 mph 176° @ 0918 AM 85 68 86 48 30.01" 0 0 986 0
Bootleg 11WNW  12:35 PM 87 54 33% S2327 37 mph 184° @ 1227 PM 87 66 69 31 30.08" 0 0 915 2
Boys Ranch 1WSW  12:35 PM 93 55 28% S2023 31 mph 158° @ 1228 PM 93 70 68 28 29.99" 0 0 929 0
Brownfield 2S  12:35 PM 89 55 33% S2027 37 mph 166° @ 1140 AM 89 67 75 33 30.02" 0 0 1000 0
Canadian 6E  12:35 PM 91 67 45% S912 25 mph 184° @ 1142 AM 91 69 88 45 29.96" 0 0 1006 0
Caprock Canyons State Park  12:35 PM 88 61 40% S1421 25 mph 190° @ 1158 AM 89 67 87 37 30.00" 0 0 1057 0
Childress 2NNE  12:35 PM 92 62 38% S1420 23 mph 169° @ 1145 AM 92 68 89 38 29.96" 0 0 961 0
Clarendon 2WSW  12:35 PM 90 59 37% S1621 24 mph 190° @ 1110 AM 90 68 84 36 30.00" 0 0 1015 0
Claude 12SW  12:35 PM 88 56 33% S2125 26 mph 159° @ 1218 PM 89 71 70 33 30.02" 0 0 1008 0
Clyde 2WNW  12:35 PM 89 65 46% SE89 18 mph 193° @ 1117 AM 89 68 92 46 30.00" 0 0 965 0
Colorado City 5NW  12:35 PM 90 65 43% S1316 20 mph 183° @ 1152 AM 90 67 91 43 29.99" 0 0 953 0
Comanche Springs  12:35 PM 93 64 38% S1015 23 mph 170° @ 1151 AM 93 69 92 36 29.95" 0 0 990 0
Coyanosa 2N  12:35 PM 93 59 33% SE1216 29 mph 124° @ 1156 AM 93 73 70 33 29.95" 0 0 976 0
Crane 1NNW   12:35 PM 88 63 44% SE1318 29 mph 166° @ 1109 AM 89 75 69 42 29.99" 0 0 980 0
Crowell 1E  12:35 PM 94 64 38% SW1017 21 mph 212° @ 1031 AM 95 72 85 36 29.95" 0 0 966 0
Dell City  12:35 PM 91 61 36% SE1115 35 mph 139° @ 1211 AM 91 70 58 33 29.96" 0 0 934 0
Denver City 7WNW  12:35 PM 88 48 25% SE2231 31 mph 151° @ 1235 PM 88 61 84 25 30.02" 0 0 951 0
Dimmitt 2NE  12:35 PM 87 55 35% S2231 33 mph 164° @ 1210 PM 88 66 79 32 30.05" 0 0 961 1
Doole 3WNW  12:35 PM 90 64 43% S46 14 mph 187° @ 0953 AM 90 66 93 43 29.96" 0 0 967 0
Dora NM 2SW  12:35 PM 88 48 27% S2230 36 mph 166° @ 1130 AM 88 63 69 27 30.06" 0 0 885 0
Dozier 3W  12:35 PM 93 65 40% S1418 24 mph 174° @ 1220 PM 93 68 96 39 29.98" 0 0 964 0
Earth 9WSW  12:35 PM 89 54 30% SE2226 31 mph 152° @ 1217 PM 91 63 78 29 30.04" 0 0 1012 2
Endee NM 2SW  12:35 PM 91 55 29% S2328 36 mph 187° @ 1223 PM 91 68 64 25 30.02" 0 0 922 2
Estelline 3SSE  12:35 PM 92 65 40% SE1418 20 mph 178° @ 1118 AM 92 70 87 39 29.95" 0 0 974 0
Floydada 2NNE  12:35 PM 87 59 40% S1420 24 mph 175° @ 1225 PM 87 66 85 39 30.03" 0 0 979 0
Fluvanna 3WNW  12:35 PM 86 62 47% S1319 23 mph 160° @ 1200 PM 86 71 78 47 30.01" 0 0 940 0
Fort Chadbourne  12:35 PM 89 66 46% SE1014 18 mph 171° @ 1223 PM 90 66 97 43 29.98" 0 0 1008 0
Fort Lancaster  12:35 PM 88 65 46% SE1114 27 mph 167° @ 1145 AM 88 74 84 46 29.97" 0 0 950 0
Fort Lewis CO  12:35 PM 61 53 75% S1722 28 mph 97° @ 1207 PM 62 54 99 56 30.05" 0.06 0.15 257 0
Fort McKavett  12:35 PM 91 62 38% SE69 18 mph 147° @ 0929 AM 91 69 96 37 29.99" 0 0 967 0
Friona 2NE  12:35 PM 88 54 33% S2129 31 mph 181° @ 1220 PM 88 61 84 32 30.06" 0 0 975 0
Fritch 1WNW  12:35 PM 91 57 33% S1622 31 mph 195° @ 1209 PM 91 72 66 33 29.98" 0 0 943 0
Gail 2ESE  12:35 PM 88 61 42% S1419 21 mph 151° @ 1200 PM 88 66 91 42 29.99" 0 0 939 0
Goodlett 3W  12:35 PM 94 62 36% S1320 24 mph 200° @ 1050 AM 94 71 83 36 29.94" 0 0 982 0
Goodnight  12:35 PM 90 59 34% S1823 29 mph 172° @ 1050 AM 91 65 88 32 30.02" 0 0 939 0
Graham 5SSW  12:35 PM 84 62 50% S1419 23 mph 181° @ 1140 AM 84 69 84 50 30.01" 0 0 957 0
Guadalupe Mtns Natl Park  12:35 PM 84 50 32% SW36 24 mph 355° @ 0340 AM 85 67 68 26 30.13" 0 0 935 0
Guthrie 10WSW  12:35 PM 89 61 41% S813 21 mph 196° @ 1030 AM 89 69 87 40 29.96" 0 0 908 0
Hackberry 2SSE  12:35 PM 92 65 41% S815 23 mph 202° @ 1057 AM 92 72 83 40 29.96" 0 0 990 0
Happy 1E  12:35 PM 89 51 27% S2529 31 mph 190° @ 1159 AM 90 62 90 25 30.03" 0 0 997 3
Hart 3N  12:35 PM 88 52 30% S1522 29 mph 165° @ 1220 PM 88 64 91 30 30.03" 0 0 988 0
Haskell 1NW  12:35 PM 91 65 45% S1014 18 mph 196° @ 1105 AM 91 72 85 44 29.96" 0 0 914 0
Hefner 1SW  12:35 PM 94 63 35% S1114 22 mph 204° @ 1015 AM 95 69 87 33 29.96" 0 0 945 0
Hereford 2NW  12:35 PM 88 54 32% S1931 31 mph 166° @ 1225 PM 88 66 74 32 30.04" 0 0 958 0
Hobbs NM 5NW  12:35 PM 87 51 28% S1620 29 mph 157° @ 1206 PM 87 68 71 28 30.05" 0 0 830 0
Jayton 1SSE  12:35 PM 91 62 41% SW1015 18 mph 201° @ 1020 AM 91 69 86 41 29.97" 0 0 961 0
Junction 1SSW  12:35 PM 90 66 45% S12 15 mph 193° @ 0946 AM 90 63 100 44 29.97" 0 0 935 0
Kent 9E  12:35 PM 88 51 28% N12 20 mph 112° @ 1212 AM 90 66 68 27 30.02" 0 0 976 0
Knox City 3NW  12:35 PM 93 62 38% S915 20 mph 207° @ 1040 AM 94 68 93 38 29.95" 0 0 916 0
Lake Alan Henry 1NW  12:35 PM 88 64 46% S67 20 mph 175° @ 1231 PM 89 71 80 44 29.98" 0 0 951 0
Lake McClellan 2NW  12:35 PM 87 61 41% S1416 24 mph 176° @ 1225 PM 88 69 80 38 30.02" 0 0 870 0
Lamesa 2SE  12:35 PM 88 58 37% SE1723 25 mph 153° @ 1140 AM 88 68 79 37 30.02" 0 0 977 0
Lesley 2S  12:35 PM 94 60 33% S1520 25 mph 158° @ 1221 PM 95 69 87 32 29.96" 0 0 974 0
Levelland 4S  12:35 PM 89 54 32% S1932 32 mph 170° @ 1235 PM 89 68 73 32 30.02" 0 0 945 0
Lomax 1SSE  12:35 PM 87 62 43% S1724 27 mph 176° @ 0958 AM 88 70 76 41 29.99" 0 0 982 0
Lubbock 3WNW TTU  12:35 PM 88 57 36% SE1521 26 mph 173° @ 1200 PM 89 72 72 36 30.02" 0 0 974 0
McAdoo 3NNW  12:35 PM 89 60 38% S1925 28 mph 187° @ 1221 PM 89 69 79 37 30.03" 0 0 980 0
McCamey 1SSW  12:35 PM 88 63 45% SE1416 33 mph 134° @ 1217 PM 88 74 72 43 29.99" 0 0 869 0
McLean 1E  12:35 PM 89 60 40% S1524 24 mph 188° @ 1035 AM 89 68 86 40 29.99" 0 0 1011 0
Memphis 1NE  12:35 PM 91 58 33% S1319 22 mph 176° @ 1130 AM 92 67 92 33 29.96" 0 0 834 0
Menard 2NW   12:35 PM 89 66 47% S911 16 mph 158° @ 1016 AM 90 63 98 46 29.99" 0 0 844 0
Mertzon 3NNE  12:35 PM 89 65 45% S1115 21 mph 181° @ 0918 AM 90 68 95 43 29.99" 0 0 840 0
Morton 1ENE  12:35 PM 89 51 28% S1925 33 mph 161° @ 1130 AM 89 66 67 28 30.03" 0 0 924 0
Muleshoe 2SSW  12:35 PM 89 53 30% S1926 30 mph 170° @ 1150 AM 89 63 81 30 30.04" 0 0 1031 0
New Home  12:35 PM 89 55 32% S1820 26 mph 180° @ 1158 AM 89 69 75 32 30.03" 0 0 977 0
Northfield 1S  12:35 PM 93 58 33% S1422 22 mph 178° @ 1210 PM 93 71 80 33 29.96" 0 0 975 0
O'Donnell 1N  12:35 PM 88 58 37% S1421 25 mph 175° @ 1215 PM 88 70 74 37 30.02" 0 0 899 0
Odell 4ENE  12:35 PM 92 65 41% S911 21 mph 203° @ 1115 AM 93 73 82 40 29.95" 0 0 1004 0
Olton 6S  12:35 PM 89 54 32% S1724 29 mph 160° @ 1200 PM 89 65 86 31 30.04" 0 0 874 0
Paducah 10SW  12:35 PM 91 60 37% S1320 23 mph 203° @ 1050 AM 91 67 93 36 29.96" 0 0 921 0
Palo Duro 4E (JA Ranch)  12:35 PM 92 62 37% SE1620 25 mph 177° @ 1134 AM 92 64 93 36 29.98" 0 0 939 0
Palo Duro Canyon SP Floor  12:35 PM 92 55 28% SE1723 28 mph 234° @ 1204 PM 93 72 68 28 29.98" 0 0 880 0
Palo Duro Canyon State Park Rim  12:35 PM 91 57 32% S1218 27 mph 190° @ 0848 AM 91 69 74 32 30.03" 0 0 994 0
Palo Duro Reservoir 1NW   12:35 PM 93 61 35% S1823 31 mph 188° @ 1208 PM 93 68 73 35 29.98" 0 0 1001 0
Pampa 2E  12:35 PM 89 59 38% S1522 27 mph 174° @ 1200 PM 89 67 84 36 30.01" 0 0 939 0
Panhandle 1SSW  12:35 PM 90 60 37% S2327 29 mph 181° @ 1234 PM 90 61 94 34 30.03" 0 0 974 0
Plains 3N  12:35 PM 88 54 32% SE2126 31 mph 151° @ 1220 PM 88 62 76 30 30.03" 0 0 937 0
Plainview 1S  12:35 PM 87 59 40% S1524 25 mph 185° @ 1025 AM 87 68 88 40 30.03" 0 0 889 0
Post 1NE  12:35 PM 87 62 46% S1116 21 mph 162° @ 1205 PM 87 70 83 46 30.00" 0 0 997 0
Ralls 1SE  12:35 PM 84 60 47% S1219 23 mph 175° @ 1135 AM 84 67 85 47 30.04" 0 0 954 0
Reese Center  12:35 PM 88 56 34% S1622 33 mph 174° @ 1227 PM 90 70 72 30 30.02" 0 0 1002 0
Roaring Springs 3N  12:35 PM 90 59 38% S1420 23 mph 194° @ 1040 AM 90 67 93 38 29.99" 0 0 962 0
Romero 11SSW  12:35 PM 93 49 22% S2227 36 mph 183° @ 1213 PM 93 71 62 21 30.01" 0 0 932 2
Rotan 5W  12:35 PM 92 63 38% SW1520 21 mph 173° @ 1010 AM 93 68 80 37 29.98" 0 0 965 0
San Angelo 7NW  12:35 PM 90 60 39% S720 20 mph 193° @ 1235 PM 90 67 81 39 29.97" 0 0 919 0
Seagraves 1SW  12:35 PM 90 55 32% S1926 27 mph 161° @ 1015 AM 90 66 78 31 30.02" 0 0 939 0
Segovia 7SSW  12:35 PM 87 63 45% S57 15 mph 147° @ 0909 AM 88 67 97 43 30.01" 0 0 996 0
Seminole 2NNE  12:35 PM 89 52 29% S1726 28 mph 152° @ 1210 PM 89 64 78 29 30.01" 0 0 979 0
Seymour 3NW  12:35 PM 92 64 41% SE913 19 mph 190° @ 0940 AM 92 70 90 41 29.95" 0 0 863 0
Sierra Blanca 1SSE  12:35 PM 90 55 30% S1418 24 mph 171° @ 1131 AM 90 68 65 29 30.03" 0 0 864 0
Silverton 7ESE  12:35 PM 87 59 42% S1519 28 mph 186° @ 1220 PM 87 69 80 42 30.03" 0 0 966 0
Slaton 2NE  12:35 PM 84 62 49% S1623 25 mph 186° @ 1005 AM 84 68 87 49 30.03" 0 0 882 0
Smyer  12:35 PM 88 56 33% S1416 28 mph 170° @ 1225 PM 88 70 71 32 30.03" 0 0 1034 0
Snyder 3E  12:35 PM 90 61 41% S1118 24 mph 159° @ 1215 PM 90 69 84 40 29.99" 0 0 925 0
Snyder 3SSW  12:35 PM 88 64 45% S811 22 mph 191° @ 1057 AM 89 69 88 42 29.99" 0 0 971 0
South Plains 3ENE  12:35 PM 88 61 41% S1218 25 mph 200° @ 0939 AM 89 64 88 35 30.03" 0 0 946 0
Spur 1W  12:35 PM 89 60 40% S1217 21 mph 178° @ 1230 PM 89 67 87 40 29.98" 0 0 977 0
St. Lawrence 5SW  12:35 PM 86 61 45% S1420 27 mph 169° @ 0830 AM 86 67 79 45 30.00" 0 0 947 0
Stamford 5ESE  12:35 PM 91 67 45% S1011 21 mph 222° @ 1040 AM 91 70 90 44 29.96" 0 0 969 0
Sterling City 4WSW  12:35 PM 89 62 41% SE1114 21 mph 163° @ 0919 AM 90 64 100 40 30.00" 0 0 813 0
Stinnett 1NNW  12:35 PM 90 57 33% S2126 29 mph 193° @ 1232 PM 91 70 69 32 30.01" 0 0 981 1
Stratford 4WNW  12:35 PM 91 55 30% S2730 36 mph 192° @ 1156 AM 92 63 83 26 30.01" 0 0 978 2
Sundown 8WSW  12:35 PM 90 51 27% S1826 33 mph 157° @ 1225 PM 90 62 79 27 30.03" 0 0 903 0
Sweetwater 11SW   12:35 PM 88 63 43% S1418 21 mph 197° @ 1202 PM 89 68 85 42 30.01" 0 0 1050 0
Tahoka 3NNE  12:35 PM 89 58 36% S1925 26 mph 157° @ 1148 AM 89 69 77 34 30.02" 0 0 992 0
Tarzan 2WNW  12:35 PM 88 59 38% SE1521 28 mph 139° @ 1147 AM 89 70 75 38 30.01" 0 0 912 0
Tatum NM 2SW  12:35 PM 90 49 25% SE2228 32 mph 152° @ 1055 AM 90 62 75 25 30.05" 0 0 943 0
Throckmorton 1SW  12:35 PM 93 67 42% S58 17 mph 188° @ 1204 PM 94 69 93 41 29.96" 0 0 983 0
Truscott 2SE  12:35 PM 92 62 37% S1218 21 mph 211° @ 1056 AM 93 71 86 37 29.95" 0 0 975 0
Tulia 2ENE  12:35 PM 88 56 35% S2231 31 mph 178° @ 1235 PM 88 64 89 34 30.03" 0 0 885 0
Turkey 2WSW  12:35 PM 91 60 36% SE1419 22 mph 167° @ 1040 AM 91 69 86 35 29.98" 0 0 881 0
Umbarger 3NNE  12:35 PM 91 57 33% S2227 32 mph 175° @ 1225 PM 91 66 81 32 30.04" 0 0 967 1
Van Horn 3ENE  12:35 PM 92 55 28% S1012 21 mph 187° @ 0646 AM 93 72 63 28 29.99" 0 0 969 0
Vigo Park  12:35 PM 90 58 34% S1619 28 mph 183° @ 1225 PM 91 67 86 32 30.03" 0 0 913 0
Wall 2E  12:35 PM 90 62 40% SW46 21 mph 183° @ 0844 AM 91 68 88 38 29.98" 0 0 975 0
Weinert 2NNE  12:35 PM 91 64 40% S710 20 mph 208° @ 0942 AM 92 73 79 40 29.96" 0 0 896 0
Welch  12:35 PM 89 58 35% SE2024 30 mph 167° @ 1202 PM 90 68 78 34 30.02" 0 0 974 1
White River Lake 6NW  12:35 PM 87 60 43% S1723 25 mph 192° @ 1215 PM 88 69 81 43 30.00" 0 0 995 0
Wolfforth 6SSW  12:35 PM 88 56 35% S1825 30 mph 183° @ 1015 AM 88 69 75 34 30.02" 0 0 973 0

West Texas Mesonet Home   Site Map/Menu  NWS Lubbock Soil Data  Daily Summary Page  24hr Precip  72hr Precip  Google Plot